Happy Valley, Tennessee
Current Conditions -  °F | °C
As of 4:53 PM on Thursday 23 Oct 2014 (Local Time) from KTYS Reporting Station
Scattered Clouds Scattered Clouds  
Wind Chill: 17°   Ceiling: Unl
Heat Index: 17°   Visibility: 10mi
Dew Point:   Wind: 9mph
Humidity: 46%   Direction: 30°NNE
Pressure: 30.09"   Gusts: NA
Location:  35.5537°N, 83.9603°W
Report Text: KTYS 232053Z 03008KT 10SM SCT250 17/05 A3009 RMK AO2 SLP187 T01670050 56013
Loading
Personal Weather Stations






























Interactive Weather Map
Tropical Storm Tracking
New forecast layout! Learn more

10-Day Weather Forecast

Advertisements
Track Severe Weather on mobile